sensor_id;sensor_type;location;lat;lon;timestamp;P1;durP1;ratioP1;P2;durP2;ratioP2
75303;SDS011;64042;50.916;6.988;2022-12-29T00:01:19;3.90;;;3.07;;
75303;SDS011;64042;50.916;6.988;2022-12-29T00:03:47;4.07;;;3.53;;
75303;SDS011;64042;50.916;6.988;2022-12-29T00:06:12;5.43;;;3.33;;
75303;SDS011;64042;50.916;6.988;2022-12-29T00:08:38;4.97;;;4.57;;
75303;SDS011;64042;50.916;6.988;2022-12-29T00:13:38;5.13;;;3.22;;
75303;SDS011;64042;50.916;6.988;2022-12-29T00:16:22;5.18;;;4.68;;
75303;SDS011;64042;50.916;6.988;2022-12-29T00:18:49;5.25;;;4.35;;
75303;SDS011;64042;50.916;6.988;2022-12-29T00:21:15;6.18;;;5.38;;
75303;SDS011;64042;50.916;6.988;2022-12-29T00:24:00;4.57;;;2.97;;
75303;SDS011;64042;50.916;6.988;2022-12-29T00:26:45;5.80;;;4.97;;
75303;SDS011;64042;50.916;6.988;2022-12-29T00:29:30;4.70;;;4.15;;
75303;SDS011;64042;50.916;6.988;2022-12-29T00:32:15;4.32;;;3.92;;
75303;SDS011;64042;50.916;6.988;2022-12-29T00:34:58;3.83;;;2.55;;
75303;SDS011;64042;50.916;6.988;2022-12-29T00:37:33;5.50;;;5.00;;
75303;SDS011;64042;50.916;6.988;2022-12-29T00:40:18;5.82;;;5.32;;
75303;SDS011;64042;50.916;6.988;2022-12-29T00:43:02;3.83;;;2.95;;
75303;SDS011;64042;50.916;6.988;2022-12-29T00:45:46;5.43;;;4.93;;
75303;SDS011;64042;50.916;6.988;2022-12-29T00:48:11;5.17;;;4.67;;
75303;SDS011;64042;50.916;6.988;2022-12-29T00:50:37;3.53;;;2.37;;
75303;SDS011;64042;50.916;6.988;2022-12-29T00:53:02;4.85;;;4.30;;
75303;SDS011;64042;50.916;6.988;2022-12-29T00:55:27;4.10;;;3.72;;
75303;SDS011;64042;50.916;6.988;2022-12-29T00:57:52;3.57;;;3.13;;
75303;SDS011;64042;50.916;6.988;2022-12-29T01:00:18;3.67;;;2.70;;
75303;SDS011;64042;50.916;6.988;2022-12-29T01:02:43;5.00;;;4.40;;
75303;SDS011;64042;50.916;6.988;2022-12-29T01:05:08;3.40;;;2.80;;
75303;SDS011;64042;50.916;6.988;2022-12-29T01:07:34;4.55;;;2.95;;
75303;SDS011;64042;50.916;6.988;2022-12-29T01:09:59;3.75;;;2.53;;
75303;SDS011;64042;50.916;6.988;2022-12-29T01:12:36;7.25;;;4.32;;
75303;SDS011;64042;50.916;6.988;2022-12-29T01:15:09;3.40;;;2.20;;
75303;SDS011;64042;50.916;6.988;2022-12-29T01:17:36;3.83;;;3.42;;
75303;SDS011;64042;50.916;6.988;2022-12-29T01:20:02;4.07;;;3.35;;
75303;SDS011;64042;50.916;6.988;2022-12-29T01:22:28;3.90;;;3.40;;
75303;SDS011;64042;50.916;6.988;2022-12-29T01:24:53;6.22;;;2.85;;
75303;SDS011;64042;50.916;6.988;2022-12-29T01:27:18;3.73;;;2.30;;
75303;SDS011;64042;50.916;6.988;2022-12-29T01:29:44;4.13;;;3.72;;
75303;SDS011;64042;50.916;6.988;2022-12-29T01:32:09;4.68;;;4.28;;
75303;SDS011;64042;50.916;6.988;2022-12-29T01:34:34;3.60;;;2.45;;
75303;SDS011;64042;50.916;6.988;2022-12-29T01:37:00;3.30;;;2.30;;
75303;SDS011;64042;50.916;6.988;2022-12-29T01:39:25;4.57;;;4.17;;
75303;SDS011;64042;50.916;6.988;2022-12-29T01:41:50;3.07;;;2.53;;
75303;SDS011;64042;50.916;6.988;2022-12-29T01:49:48;4.50;;;4.10;;
75303;SDS011;64042;50.916;6.988;2022-12-29T01:52:14;4.38;;;3.97;;
75303;SDS011;64042;50.916;6.988;2022-12-29T01:54:41;3.95;;;3.65;;
75303;SDS011;64042;50.916;6.988;2022-12-29T01:57:10;4.30;;;4.00;;
75303;SDS011;64042;50.916;6.988;2022-12-29T01:59:41;3.35;;;2.72;;
75303;SDS011;64042;50.916;6.988;2022-12-29T02:02:08;3.83;;;3.40;;
75303;SDS011;64042;50.916;6.988;2022-12-29T02:04:34;2.88;;;2.30;;
75303;SDS011;64042;50.916;6.988;2022-12-29T02:07:01;4.05;;;3.50;;
75303;SDS011;64042;50.916;6.988;2022-12-29T02:09:29;3.90;;;3.50;;
75303;SDS011;64042;50.916;6.988;2022-12-29T02:11:54;3.15;;;2.85;;
75303;SDS011;64042;50.916;6.988;2022-12-29T02:14:19;3.97;;;2.22;;
75303;SDS011;64042;50.916;6.988;2022-12-29T02:22:34;3.67;;;3.38;;
75303;SDS011;64042;50.916;6.988;2022-12-29T02:27:55;4.22;;;3.80;;
75303;SDS011;64042;50.916;6.988;2022-12-29T02:30:44;3.42;;;3.08;;
75303;SDS011;64042;50.916;6.988;2022-12-29T02:36:05;3.80;;;3.50;;
75303;SDS011;64042;50.916;6.988;2022-12-29T02:41:08;3.70;;;3.40;;
75303;SDS011;64042;50.916;6.988;2022-12-29T02:43:44;2.60;;;2.00;;
75303;SDS011;64042;50.916;6.988;2022-12-29T02:48:54;3.30;;;2.92;;
75303;SDS011;64042;50.916;6.988;2022-12-29T02:51:33;3.45;;;3.17;;
75303;SDS011;64042;50.916;6.988;2022-12-29T02:54:02;3.65;;;3.35;;
75303;SDS011;64042;50.916;6.988;2022-12-29T02:56:46;3.83;;;3.53;;
75303;SDS011;64042;50.916;6.988;2022-12-29T02:59:11;3.97;;;3.57;;
75303;SDS011;64042;50.916;6.988;2022-12-29T03:07:38;3.80;;;3.50;;
75303;SDS011;64042;50.916;6.988;2022-12-29T03:21:39;3.80;;;3.50;;
75303;SDS011;64042;50.916;6.988;2022-12-29T03:24:27;3.92;;;3.53;;
75303;SDS011;64042;50.916;6.988;2022-12-29T03:26:55;3.42;;;3.22;;
75303;SDS011;64042;50.916;6.988;2022-12-29T03:29:23;2.45;;;2.15;;
75303;SDS011;64042;50.916;6.988;2022-12-29T03:31:49;3.38;;;3.17;;
75303;SDS011;64042;50.916;6.988;2022-12-29T03:34:16;3.08;;;2.17;;
75303;SDS011;64042;50.916;6.988;2022-12-29T03:36:44;3.60;;;3.03;;
75303;SDS011;64042;50.916;6.988;2022-12-29T03:39:23;2.28;;;1.70;;
75303;SDS011;64042;50.916;6.988;2022-12-29T03:41:50;3.10;;;2.90;;
75303;SDS011;64042;50.916;6.988;2022-12-29T03:44:17;3.17;;;2.97;;
75303;SDS011;64042;50.916;6.988;2022-12-29T03:46:42;3.00;;;2.80;;
75303;SDS011;64042;50.916;6.988;2022-12-29T03:49:07;2.30;;;2.10;;
75303;SDS011;64042;50.916;6.988;2022-12-29T03:51:33;2.17;;;1.98;;
75303;SDS011;64042;50.916;6.988;2022-12-29T03:53:58;2.75;;;2.30;;
75303;SDS011;64042;50.916;6.988;2022-12-29T03:56:24;3.25;;;1.80;;
75303;SDS011;64042;50.916;6.988;2022-12-29T03:58:49;3.37;;;3.17;;
75303;SDS011;64042;50.916;6.988;2022-12-29T04:01:14;3.40;;;3.20;;
75303;SDS011;64042;50.916;6.988;2022-12-29T04:03:40;3.15;;;2.95;;
75303;SDS011;64042;50.916;6.988;2022-12-29T04:06:05;2.23;;;1.63;;
75303;SDS011;64042;50.916;6.988;2022-12-29T04:08:30;3.08;;;2.83;;
75303;SDS011;64042;50.916;6.988;2022-12-29T04:10:56;3.47;;;3.20;;
75303;SDS011;64042;50.916;6.988;2022-12-29T04:13:21;2.72;;;2.05;;
75303;SDS011;64042;50.916;6.988;2022-12-29T04:15:46;4.13;;;3.60;;
75303;SDS011;64042;50.916;6.988;2022-12-29T04:18:12;2.80;;;2.60;;
75303;SDS011;64042;50.916;6.988;2022-12-29T04:20:38;2.03;;;1.65;;
75303;SDS011;64042;50.916;6.988;2022-12-29T04:23:22;4.15;;;3.85;;
75303;SDS011;64042;50.916;6.988;2022-12-29T04:25:47;3.45;;;3.25;;
75303;SDS011;64042;50.916;6.988;2022-12-29T04:28:13;2.42;;;2.22;;
75303;SDS011;64042;50.916;6.988;2022-12-29T04:30:39;2.22;;;1.65;;
75303;SDS011;64042;50.916;6.988;2022-12-29T04:33:04;2.10;;;1.60;;
75303;SDS011;64042;50.916;6.988;2022-12-29T04:35:30;1.92;;;1.60;;
75303;SDS011;64042;50.916;6.988;2022-12-29T04:37:55;2.78;;;2.58;;
75303;SDS011;64042;50.916;6.988;2022-12-29T04:40:20;3.23;;;3.03;;
75303;SDS011;64042;50.916;6.988;2022-12-29T04:42:46;2.55;;;2.35;;
75303;SDS011;64042;50.916;6.988;2022-12-29T04:45:11;1.63;;;1.40;;
75303;SDS011;64042;50.916;6.988;2022-12-29T04:47:36;3.57;;;3.33;;
75303;SDS011;64042;50.916;6.988;2022-12-29T04:50:02;2.65;;;2.45;;
75303;SDS011;64042;50.916;6.988;2022-12-29T04:52:27;4.28;;;3.97;;
75303;SDS011;64042;50.916;6.988;2022-12-29T04:54:53;1.90;;;1.63;;
75303;SDS011;64042;50.916;6.988;2022-12-29T04:57:18;3.57;;;3.37;;
75303;SDS011;64042;50.916;6.988;2022-12-29T04:59:43;2.33;;;1.87;;
75303;SDS011;64042;50.916;6.988;2022-12-29T05:02:08;2.83;;;2.63;;
75303;SDS011;64042;50.916;6.988;2022-12-29T05:04:34;2.20;;;2.07;;
75303;SDS011;64042;50.916;6.988;2022-12-29T05:06:59;2.37;;;2.20;;
75303;SDS011;64042;50.916;6.988;2022-12-29T05:09:24;1.53;;;1.20;;
75303;SDS011;64042;50.916;6.988;2022-12-29T05:11:49;1.70;;;1.60;;
75303;SDS011;64042;50.916;6.988;2022-12-29T05:14:15;1.67;;;1.37;;
75303;SDS011;64042;50.916;6.988;2022-12-29T05:16:40;2.73;;;2.53;;
75303;SDS011;64042;50.916;6.988;2022-12-29T05:19:05;2.07;;;1.50;;
75303;SDS011;64042;50.916;6.988;2022-12-29T05:21:31;2.70;;;2.50;;
75303;SDS011;64042;50.916;6.988;2022-12-29T05:23:56;2.97;;;1.53;;
75303;SDS011;64042;50.916;6.988;2022-12-29T05:26:21;2.70;;;2.47;;
75303;SDS011;64042;50.916;6.988;2022-12-29T05:28:46;2.33;;;2.17;;
75303;SDS011;64042;50.916;6.988;2022-12-29T05:31:12;2.40;;;2.20;;
75303;SDS011;64042;50.916;6.988;2022-12-29T05:33:37;2.50;;;2.30;;
75303;SDS011;64042;50.916;6.988;2022-12-29T05:36:06;1.40;;;1.17;;
75303;SDS011;64042;50.916;6.988;2022-12-29T05:38:32;1.92;;;1.23;;
75303;SDS011;64042;50.916;6.988;2022-12-29T05:40:57;2.22;;;1.73;;
75303;SDS011;64042;50.916;6.988;2022-12-29T05:43:23;2.10;;;1.50;;
75303;SDS011;64042;50.916;6.988;2022-12-29T05:45:48;2.67;;;2.47;;
75303;SDS011;64042;50.916;6.988;2022-12-29T05:48:14;1.65;;;1.55;;
75303;SDS011;64042;50.916;6.988;2022-12-29T05:50:40;1.48;;;1.38;;
75303;SDS011;64042;50.916;6.988;2022-12-29T05:53:05;1.52;;;1.42;;
75303;SDS011;64042;50.916;6.988;2022-12-29T05:55:30;3.00;;;2.80;;
75303;SDS011;64042;50.916;6.988;2022-12-29T05:57:56;3.83;;;3.55;;
75303;SDS011;64042;50.916;6.988;2022-12-29T06:00:21;3.17;;;2.97;;
75303;SDS011;64042;50.916;6.988;2022-12-29T06:02:46;2.60;;;2.40;;
75303;SDS011;64042;50.916;6.988;2022-12-29T06:05:11;2.47;;;2.28;;
75303;SDS011;64042;50.916;6.988;2022-12-29T06:07:37;1.53;;;1.43;;
75303;SDS011;64042;50.916;6.988;2022-12-29T06:10:03;2.75;;;2.55;;
75303;SDS011;64042;50.916;6.988;2022-12-29T06:12:29;3.13;;;2.92;;
75303;SDS011;64042;50.916;6.988;2022-12-29T06:14:55;2.60;;;2.50;;
75303;SDS011;64042;50.916;6.988;2022-12-29T06:17:20;3.50;;;3.30;;
75303;SDS011;64042;50.916;6.988;2022-12-29T06:19:45;1.60;;;1.50;;
75303;SDS011;64042;50.916;6.988;2022-12-29T06:22:10;3.47;;;3.27;;
75303;SDS011;64042;50.916;6.988;2022-12-29T06:24:37;3.28;;;3.08;;
75303;SDS011;64042;50.916;6.988;2022-12-29T06:27:02;2.58;;;2.47;;
75303;SDS011;64042;50.916;6.988;2022-12-29T06:29:28;1.33;;;1.23;;
75303;SDS011;64042;50.916;6.988;2022-12-29T06:31:53;1.90;;;1.80;;
75303;SDS011;64042;50.916;6.988;2022-12-29T06:34:21;3.00;;;2.80;;
75303;SDS011;64042;50.916;6.988;2022-12-29T06:36:46;3.28;;;3.08;;
75303;SDS011;64042;50.916;6.988;2022-12-29T06:39:11;3.60;;;3.40;;
75303;SDS011;64042;50.916;6.988;2022-12-29T06:41:37;2.93;;;2.73;;
75303;SDS011;64042;50.916;6.988;2022-12-29T06:44:02;2.60;;;2.50;;
75303;SDS011;64042;50.916;6.988;2022-12-29T06:46:28;1.63;;;1.20;;
75303;SDS011;64042;50.916;6.988;2022-12-29T06:48:53;3.33;;;3.13;;
75303;SDS011;64042;50.916;6.988;2022-12-29T06:51:18;1.37;;;1.17;;
75303;SDS011;64042;50.916;6.988;2022-12-29T06:53:43;1.83;;;1.23;;
75303;SDS011;64042;50.916;6.988;2022-12-29T06:56:09;2.27;;;2.17;;
75303;SDS011;64042;50.916;6.988;2022-12-29T06:58:34;2.60;;;2.50;;
75303;SDS011;64042;50.916;6.988;2022-12-29T07:00:59;3.17;;;2.97;;
75303;SDS011;64042;50.916;6.988;2022-12-29T07:03:25;2.33;;;2.23;;
75303;SDS011;64042;50.916;6.988;2022-12-29T07:05:50;1.13;;;1.02;;
75303;SDS011;64042;50.916;6.988;2022-12-29T07:08:15;1.30;;;1.20;;
75303;SDS011;64042;50.916;6.988;2022-12-29T07:10:41;2.55;;;2.45;;
75303;SDS011;64042;50.916;6.988;2022-12-29T07:13:06;2.30;;;2.20;;
75303;SDS011;64042;50.916;6.988;2022-12-29T07:15:32;2.20;;;2.00;;
75303;SDS011;64042;50.916;6.988;2022-12-29T07:17:58;2.35;;;2.17;;
75303;SDS011;64042;50.916;6.988;2022-12-29T07:20:23;1.87;;;1.77;;
75303;SDS011;64042;50.916;6.988;2022-12-29T07:22:48;2.30;;;2.17;;
75303;SDS011;64042;50.916;6.988;2022-12-29T07:25:14;2.17;;;2.07;;
75303;SDS011;64042;50.916;6.988;2022-12-29T07:27:39;1.88;;;1.77;;
75303;SDS011;64042;50.916;6.988;2022-12-29T07:30:04;2.37;;;2.23;;
75303;SDS011;64042;50.916;6.988;2022-12-29T07:32:33;2.20;;;2.10;;
75303;SDS011;64042;50.916;6.988;2022-12-29T07:34:58;2.38;;;2.28;;
75303;SDS011;64042;50.916;6.988;2022-12-29T07:37:24;2.73;;;2.53;;
75303;SDS011;64042;50.916;6.988;2022-12-29T07:39:49;2.10;;;2.00;;
75303;SDS011;64042;50.916;6.988;2022-12-29T07:42:14;1.47;;;1.10;;
75303;SDS011;64042;50.916;6.988;2022-12-29T07:44:40;2.07;;;1.97;;
75303;SDS011;64042;50.916;6.988;2022-12-29T07:47:05;2.22;;;2.13;;
75303;SDS011;64042;50.916;6.988;2022-12-29T07:49:30;2.60;;;1.60;;
75303;SDS011;64042;50.916;6.988;2022-12-29T07:51:55;2.37;;;2.27;;
75303;SDS011;64042;50.916;6.988;2022-12-29T07:54:21;2.50;;;2.40;;
75303;SDS011;64042;50.916;6.988;2022-12-29T07:56:47;2.60;;;2.40;;
75303;SDS011;64042;50.916;6.988;2022-12-29T07:59:12;1.27;;;1.17;;
75303;SDS011;64042;50.916;6.988;2022-12-29T08:01:38;3.10;;;3.00;;
75303;SDS011;64042;50.916;6.988;2022-12-29T08:04:03;2.13;;;2.03;;
75303;SDS011;64042;50.916;6.988;2022-12-29T08:06:29;1.13;;;0.95;;
75303;SDS011;64042;50.916;6.988;2022-12-29T08:08:55;2.22;;;2.03;;
75303;SDS011;64042;50.916;6.988;2022-12-29T08:11:21;2.33;;;2.22;;
75303;SDS011;64042;50.916;6.988;2022-12-29T08:13:46;2.20;;;2.10;;
75303;SDS011;64042;50.916;6.988;2022-12-29T08:16:12;2.88;;;1.30;;
75303;SDS011;64042;50.916;6.988;2022-12-29T08:18:37;6.47;;;5.35;;
75303;SDS011;64042;50.916;6.988;2022-12-29T08:21:03;4.47;;;4.17;;
75303;SDS011;64042;50.916;6.988;2022-12-29T08:23:29;3.20;;;2.60;;
75303;SDS011;64042;50.916;6.988;2022-12-29T08:25:58;4.27;;;3.97;;
75303;SDS011;64042;50.916;6.988;2022-12-29T08:28:23;4.28;;;2.67;;
75303;SDS011;64042;50.916;6.988;2022-12-29T08:30:49;4.05;;;3.60;;
75303;SDS011;64042;50.916;6.988;2022-12-29T08:33:14;3.57;;;2.00;;
75303;SDS011;64042;50.916;6.988;2022-12-29T08:35:39;4.13;;;3.63;;
75303;SDS011;64042;50.916;6.988;2022-12-29T08:38:04;3.73;;;3.37;;
75303;SDS011;64042;50.916;6.988;2022-12-29T08:40:30;3.60;;;3.30;;
75303;SDS011;64042;50.916;6.988;2022-12-29T08:42:55;4.25;;;3.90;;
75303;SDS011;64042;50.916;6.988;2022-12-29T08:45:20;4.03;;;3.73;;
75303;SDS011;64042;50.916;6.988;2022-12-29T08:47:46;2.30;;;2.10;;
75303;SDS011;64042;50.916;6.988;2022-12-29T08:50:11;4.83;;;3.67;;
75303;SDS011;64042;50.916;6.988;2022-12-29T08:52:36;3.50;;;3.20;;
75303;SDS011;64042;50.916;6.988;2022-12-29T08:55:02;4.13;;;2.33;;
75303;SDS011;64042;50.916;6.988;2022-12-29T08:57:27;3.30;;;3.03;;
75303;SDS011;64042;50.916;6.988;2022-12-29T08:59:52;3.30;;;3.10;;
75303;SDS011;64042;50.916;6.988;2022-12-29T09:02:17;3.57;;;3.37;;
75303;SDS011;64042;50.916;6.988;2022-12-29T09:04:43;5.35;;;3.45;;
75303;SDS011;64042;50.916;6.988;2022-12-29T09:07:08;2.83;;;1.80;;
75303;SDS011;64042;50.916;6.988;2022-12-29T09:09:33;3.20;;;3.00;;
75303;SDS011;64042;50.916;6.988;2022-12-29T09:11:59;1.65;;;1.50;;
75303;SDS011;64042;50.916;6.988;2022-12-29T09:14:24;3.40;;;3.10;;
75303;SDS011;64042;50.916;6.988;2022-12-29T09:16:52;2.60;;;1.65;;
75303;SDS011;64042;50.916;6.988;2022-12-29T09:19:36;3.92;;;3.53;;
75303;SDS011;64042;50.916;6.988;2022-12-29T09:22:02;2.70;;;2.15;;
75303;SDS011;64042;50.916;6.988;2022-12-29T09:24:28;4.40;;;2.33;;
75303;SDS011;64042;50.916;6.988;2022-12-29T09:26:53;1.92;;;1.65;;
75303;SDS011;64042;50.916;6.988;2022-12-29T09:29:18;1.87;;;1.40;;
75303;SDS011;64042;50.916;6.988;2022-12-29T09:31:43;1.60;;;1.50;;
75303;SDS011;64042;50.916;6.988;2022-12-29T09:34:09;4.97;;;3.23;;
75303;SDS011;64042;50.916;6.988;2022-12-29T09:36:34;3.65;;;2.72;;
75303;SDS011;64042;50.916;6.988;2022-12-29T09:38:59;3.60;;;3.40;;
75303;SDS011;64042;50.916;6.988;2022-12-29T09:42:11;2.77;;;2.57;;
75303;SDS011;64042;50.916;6.988;2022-12-29T09:44:20;2.60;;;2.40;;
75303;SDS011;64042;50.916;6.988;2022-12-29T09:46:51;2.53;;;2.33;;
75303;SDS011;64042;50.916;6.988;2022-12-29T09:51:56;2.42;;;1.50;;
75303;SDS011;64042;50.916;6.988;2022-12-29T09:57:16;2.90;;;2.80;;
75303;SDS011;64042;50.916;6.988;2022-12-29T09:59:45;4.15;;;2.50;;
75303;SDS011;64042;50.916;6.988;2022-12-29T10:02:23;2.90;;;2.47;;
75303;SDS011;64042;50.916;6.988;2022-12-29T10:04:55;3.13;;;2.92;;
75303;SDS011;64042;50.916;6.988;2022-12-29T10:12:36;2.40;;;2.25;;
75303;SDS011;64042;50.916;6.988;2022-12-29T10:16:26;8.20;;;1.88;;
75303;SDS011;64042;50.916;6.988;2022-12-29T10:18:51;3.60;;;3.40;;
75303;SDS011;64042;50.916;6.988;2022-12-29T10:21:27;2.58;;;2.47;;
75303;SDS011;64042;50.916;6.988;2022-12-29T10:24:01;3.03;;;2.33;;
75303;SDS011;64042;50.916;6.988;2022-12-29T10:26:31;1.20;;;1.10;;
75303;SDS011;64042;50.916;6.988;2022-12-29T10:32:13;1.70;;;1.02;;
75303;SDS011;64042;50.916;6.988;2022-12-29T10:35:00;2.97;;;2.35;;
75303;SDS011;64042;50.916;6.988;2022-12-29T10:37:43;3.53;;;2.83;;
75303;SDS011;64042;50.916;6.988;2022-12-29T10:40:18;3.03;;;2.72;;
75303;SDS011;64042;50.916;6.988;2022-12-29T10:42:50;3.13;;;2.28;;
75303;SDS011;64042;50.916;6.988;2022-12-29T10:45:17;2.88;;;2.60;;
75303;SDS011;64042;50.916;6.988;2022-12-29T10:50:36;7.47;;;1.40;;
75303;SDS011;64042;50.916;6.988;2022-12-29T10:53:07;3.85;;;2.55;;
75303;SDS011;64042;50.916;6.988;2022-12-29T10:55:36;7.28;;;3.10;;
75303;SDS011;64042;50.916;6.988;2022-12-29T10:58:04;5.70;;;2.53;;
75303;SDS011;64042;50.916;6.988;2022-12-29T11:00:32;4.47;;;1.45;;
75303;SDS011;64042;50.916;6.988;2022-12-29T11:05:28;3.53;;;3.03;;
75303;SDS011;64042;50.916;6.988;2022-12-29T11:10:30;5.45;;;2.97;;
75303;SDS011;64042;50.916;6.988;2022-12-29T11:13:17;3.92;;;2.80;;
75303;SDS011;64042;50.916;6.988;2022-12-29T11:15:46;3.45;;;1.40;;
75303;SDS011;64042;50.916;6.988;2022-12-29T11:20:50;4.82;;;2.83;;
75303;SDS011;64042;50.916;6.988;2022-12-29T11:23:33;2.30;;;1.25;;
75303;SDS011;64042;50.916;6.988;2022-12-29T11:26:05;3.08;;;2.85;;
75303;SDS011;64042;50.916;6.988;2022-12-29T11:28:30;3.00;;;2.80;;
75303;SDS011;64042;50.916;6.988;2022-12-29T11:31:01;3.20;;;1.42;;
75303;SDS011;64042;50.916;6.988;2022-12-29T11:33:28;3.67;;;1.10;;
75303;SDS011;64042;50.916;6.988;2022-12-29T11:35:56;2.53;;;1.13;;
75303;SDS011;64042;50.916;6.988;2022-12-29T11:38:24;4.53;;;2.20;;
75303;SDS011;64042;50.916;6.988;2022-12-29T11:40:52;1.10;;;0.90;;
75303;SDS011;64042;50.916;6.988;2022-12-29T11:43:27;1.83;;;0.93;;
75303;SDS011;64042;50.916;6.988;2022-12-29T11:45:58;3.25;;;3.05;;
75303;SDS011;64042;50.916;6.988;2022-12-29T11:48:24;3.15;;;2.85;;
75303;SDS011;64042;50.916;6.988;2022-12-29T11:50:53;2.58;;;2.38;;
75303;SDS011;64042;50.916;6.988;2022-12-29T11:53:21;2.63;;;2.53;;
75303;SDS011;64042;50.916;6.988;2022-12-29T11:58:19;2.92;;;2.70;;
75303;SDS011;64042;50.916;6.988;2022-12-29T12:00:44;1.58;;;1.10;;
75303;SDS011;64042;50.916;6.988;2022-12-29T12:03:13;1.55;;;0.90;;
75303;SDS011;64042;50.916;6.988;2022-12-29T12:05:58;1.00;;;0.90;;
75303;SDS011;64042;50.916;6.988;2022-12-29T12:08:36;1.63;;;0.80;;
75303;SDS011;64042;50.916;6.988;2022-12-29T12:11:11;2.83;;;1.25;;
75303;SDS011;64042;50.916;6.988;2022-12-29T12:16:27;3.22;;;2.10;;
75303;SDS011;64042;50.916;6.988;2022-12-29T12:18:57;4.05;;;2.47;;
75303;SDS011;64042;50.916;6.988;2022-12-29T12:21:40;3.17;;;2.95;;
75303;SDS011;64042;50.916;6.988;2022-12-29T12:30:09;2.28;;;1.98;;
75303;SDS011;64042;50.916;6.988;2022-12-29T12:34:52;2.25;;;2.05;;
75303;SDS011;64042;50.916;6.988;2022-12-29T12:39:47;2.50;;;2.10;;
75303;SDS011;64042;50.916;6.988;2022-12-29T12:42:24;4.15;;;2.20;;
75303;SDS011;64042;50.916;6.988;2022-12-29T12:48:28;2.50;;;2.30;;
75303;SDS011;64042;50.916;6.988;2022-12-29T12:50:45;2.72;;;1.50;;
75303;SDS011;64042;50.916;6.988;2022-12-29T12:53:30;3.13;;;2.53;;
75303;SDS011;64042;50.916;6.988;2022-12-29T13:01:52;2.08;;;1.92;;
75303;SDS011;64042;50.916;6.988;2022-12-29T13:04:56;2.40;;;1.08;;
75303;SDS011;64042;50.916;6.988;2022-12-29T13:07:45;3.97;;;2.53;;
75303;SDS011;64042;50.916;6.988;2022-12-29T13:12:49;3.03;;;2.55;;
75303;SDS011;64042;50.916;6.988;2022-12-29T13:21:03;3.28;;;0.95;;
75303;SDS011;64042;50.916;6.988;2022-12-29T13:29:47;3.97;;;3.78;;
75303;SDS011;64042;50.916;6.988;2022-12-29T13:32:31;2.05;;;1.90;;
75303;SDS011;64042;50.916;6.988;2022-12-29T13:35:02;3.83;;;1.95;;
75303;SDS011;64042;50.916;6.988;2022-12-29T13:37:36;1.98;;;0.73;;
75303;SDS011;64042;50.916;6.988;2022-12-29T13:40:11;2.00;;;0.77;;
75303;SDS011;64042;50.916;6.988;2022-12-29T13:42:39;1.83;;;0.95;;
75303;SDS011;64042;50.916;6.988;2022-12-29T13:45:06;2.85;;;1.15;;
75303;SDS011;64042;50.916;6.988;2022-12-29T13:47:40;2.33;;;1.98;;
75303;SDS011;64042;50.916;6.988;2022-12-29T13:50:18;2.55;;;0.93;;
75303;SDS011;64042;50.916;6.988;2022-12-29T13:55:41;3.17;;;1.73;;
75303;SDS011;64042;50.916;6.988;2022-12-29T14:01:19;2.20;;;2.00;;
75303;SDS011;64042;50.916;6.988;2022-12-29T14:03:50;2.00;;;1.10;;
75303;SDS011;64042;50.916;6.988;2022-12-29T14:06:21;1.50;;;0.80;;
75303;SDS011;64042;50.916;6.988;2022-12-29T14:08:47;4.90;;;2.28;;
75303;SDS011;64042;50.916;6.988;2022-12-29T14:11:17;2.25;;;0.85;;
75303;SDS011;64042;50.916;6.988;2022-12-29T14:13:44;2.03;;;1.92;;
75303;SDS011;64042;50.916;6.988;2022-12-29T14:16:26;1.58;;;1.42;;
75303;SDS011;64042;50.916;6.988;2022-12-29T14:18:53;2.08;;;1.98;;
75303;SDS011;64042;50.916;6.988;2022-12-29T14:21:22;2.28;;;0.70;;
75303;SDS011;64042;50.916;6.988;2022-12-29T14:23:53;1.98;;;1.75;;
75303;SDS011;64042;50.916;6.988;2022-12-29T14:28:53;2.45;;;1.10;;
75303;SDS011;64042;50.916;6.988;2022-12-29T14:39:00;6.35;;;2.55;;
75303;SDS011;64042;50.916;6.988;2022-12-29T14:41:40;2.33;;;2.13;;
75303;SDS011;64042;50.916;6.988;2022-12-29T14:49:18;4.85;;;3.42;;
75303;SDS011;64042;50.916;6.988;2022-12-29T14:51:44;27.38;;;13.35;;
75303;SDS011;64042;50.916;6.988;2022-12-29T14:57:07;41.72;;;18.17;;
75303;SDS011;64042;50.916;6.988;2022-12-29T14:59:36;39.08;;;19.13;;
75303;SDS011;64042;50.916;6.988;2022-12-29T15:02:03;43.63;;;20.70;;
75303;SDS011;64042;50.916;6.988;2022-12-29T15:04:30;44.63;;;20.08;;
75303;SDS011;64042;50.916;6.988;2022-12-29T15:06:57;44.45;;;19.08;;
75303;SDS011;64042;50.916;6.988;2022-12-29T15:09:24;41.38;;;20.52;;
75303;SDS011;64042;50.916;6.988;2022-12-29T15:11:54;38.90;;;18.90;;
75303;SDS011;64042;50.916;6.988;2022-12-29T15:14:33;39.80;;;21.02;;
75303;SDS011;64042;50.916;6.988;2022-12-29T15:17:20;45.38;;;20.92;;
75303;SDS011;64042;50.916;6.988;2022-12-29T15:19:47;50.70;;;21.63;;
75303;SDS011;64042;50.916;6.988;2022-12-29T15:22:12;56.77;;;28.60;;
75303;SDS011;64042;50.916;6.988;2022-12-29T15:24:41;62.33;;;26.95;;
75303;SDS011;64042;50.916;6.988;2022-12-29T15:27:10;65.50;;;28.20;;
75303;SDS011;64042;50.916;6.988;2022-12-29T15:29:39;62.47;;;26.65;;
75303;SDS011;64042;50.916;6.988;2022-12-29T15:32:14;74.43;;;31.50;;
75303;SDS011;64042;50.916;6.988;2022-12-29T15:34:40;66.25;;;27.30;;
75303;SDS011;64042;50.916;6.988;2022-12-29T15:37:06;63.92;;;31.13;;
75303;SDS011;64042;50.916;6.988;2022-12-29T15:39:32;66.22;;;27.88;;
75303;SDS011;64042;50.916;6.988;2022-12-29T15:42:02;61.73;;;26.63;;
75303;SDS011;64042;50.916;6.988;2022-12-29T15:44:42;65.78;;;31.15;;
75303;SDS011;64042;50.916;6.988;2022-12-29T15:47:12;62.25;;;28.58;;
75303;SDS011;64042;50.916;6.988;2022-12-29T15:49:41;63.30;;;26.40;;
75303;SDS011;64042;50.916;6.988;2022-12-29T15:52:08;61.58;;;28.88;;
75303;SDS011;64042;50.916;6.988;2022-12-29T15:54:34;63.03;;;29.58;;
75303;SDS011;64042;50.916;6.988;2022-12-29T15:56:59;63.20;;;28.80;;
75303;SDS011;64042;50.916;6.988;2022-12-29T15:59:28;59.03;;;28.40;;
75303;SDS011;64042;50.916;6.988;2022-12-29T16:01:55;49.90;;;22.45;;
75303;SDS011;64042;50.916;6.988;2022-12-29T16:04:22;46.28;;;22.63;;
75303;SDS011;64042;50.916;6.988;2022-12-29T16:07:02;57.95;;;25.48;;
75303;SDS011;64042;50.916;6.988;2022-12-29T16:12:06;48.90;;;23.58;;
75303;SDS011;64042;50.916;6.988;2022-12-29T16:14:43;47.33;;;23.10;;
75303;SDS011;64042;50.916;6.988;2022-12-29T16:17:13;49.33;;;23.77;;
75303;SDS011;64042;50.916;6.988;2022-12-29T16:19:48;46.97;;;24.50;;
75303;SDS011;64042;50.916;6.988;2022-12-29T16:22:22;47.10;;;22.10;;
75303;SDS011;64042;50.916;6.988;2022-12-29T16:24:58;44.17;;;19.20;;
75303;SDS011;64042;50.916;6.988;2022-12-29T16:27:28;47.15;;;20.88;;
75303;SDS011;64042;50.916;6.988;2022-12-29T16:29:57;42.90;;;18.65;;
75303;SDS011;64042;50.916;6.988;2022-12-29T16:32:25;45.88;;;19.25;;
75303;SDS011;64042;50.916;6.988;2022-12-29T16:37:42;48.28;;;23.15;;
75303;SDS011;64042;50.916;6.988;2022-12-29T16:40:23;42.65;;;19.23;;
75303;SDS011;64042;50.916;6.988;2022-12-29T16:42:59;44.65;;;24.13;;
75303;SDS011;64042;50.916;6.988;2022-12-29T16:48:15;38.30;;;18.35;;
75303;SDS011;64042;50.916;6.988;2022-12-29T16:50:43;44.35;;;23.27;;
75303;SDS011;64042;50.916;6.988;2022-12-29T16:53:26;41.30;;;23.13;;
75303;SDS011;64042;50.916;6.988;2022-12-29T16:55:53;39.70;;;19.23;;
75303;SDS011;64042;50.916;6.988;2022-12-29T16:58:24;44.47;;;23.63;;
75303;SDS011;64042;50.916;6.988;2022-12-29T17:00:52;39.25;;;18.55;;
75303;SDS011;64042;50.916;6.988;2022-12-29T17:03:20;40.28;;;19.58;;
75303;SDS011;64042;50.916;6.988;2022-12-29T17:05:45;36.25;;;18.75;;
75303;SDS011;64042;50.916;6.988;2022-12-29T17:08:16;40.27;;;19.47;;
75303;SDS011;64042;50.916;6.988;2022-12-29T17:10:47;43.17;;;20.90;;
75303;SDS011;64042;50.916;6.988;2022-12-29T17:13:32;42.95;;;18.25;;